createdAt,value
2019-04-14T00:01:02.195Z,10.72
2019-04-14T00:02:29.343Z,11.40
2019-04-14T00:03:41.153Z,10.38
2019-04-14T00:04:47.018Z,10.53
2019-04-14T00:05:56.093Z,11.70
2019-04-14T00:07:01.556Z,10.40
2019-04-14T00:08:06.788Z,10.98
2019-04-14T00:09:16.232Z,12.00
2019-04-14T00:10:20.895Z,12.30
2019-04-14T00:11:25.908Z,11.20
2019-04-14T00:12:31.654Z,10.55
2019-04-14T00:13:37.102Z,11.63
2019-04-14T00:14:42.514Z,10.80
2019-04-14T00:15:50.327Z,10.70
2019-04-14T00:16:53.559Z,11.40
2019-04-14T00:17:58.960Z,11.83
2019-04-14T00:19:04.398Z,10.63
2019-04-14T00:20:09.951Z,11.05
2019-04-14T00:21:15.149Z,10.75
2019-04-14T00:22:20.540Z,12.10
2019-04-14T00:23:26.124Z,11.30
2019-04-14T00:24:31.888Z,11.57
2019-04-14T00:25:37.001Z,11.12
2019-04-14T00:26:42.282Z,11.10
2019-04-14T00:27:47.550Z,11.88
2019-04-14T00:28:53.388Z,10.30
2019-04-14T00:29:58.979Z,11.53
2019-04-14T00:31:04.863Z,11.78
2019-04-14T00:32:09.582Z,11.57
2019-04-14T00:33:15.162Z,11.25
2019-04-14T00:34:37.637Z,11.43
2019-04-14T00:35:54.438Z,11.33
2019-04-14T00:37:07.656Z,10.90
2019-04-14T00:38:25.988Z,11.55
2019-04-14T00:39:33.661Z,11.30
2019-04-14T00:40:43.930Z,11.63
2019-04-14T00:42:02.095Z,12.33
2019-04-14T00:43:17.572Z,11.00
2019-04-14T00:44:51.743Z,11.83
2019-04-14T00:46:04.438Z,12.30
2019-04-14T00:47:15.750Z,12.10
2019-04-14T00:48:24.299Z,11.60
2019-04-14T00:49:31.130Z,11.22
2019-04-14T00:50:36.827Z,12.00
2019-04-14T00:51:42.409Z,11.95
2019-04-14T00:52:48.036Z,12.33
2019-04-14T00:53:53.569Z,12.33
2019-04-14T00:54:59.354Z,12.00
2019-04-14T00:56:04.226Z,12.82
2019-04-14T00:57:09.912Z,12.43
2019-04-14T00:58:14.870Z,11.78
2019-04-14T00:59:20.078Z,12.10
2019-04-14T01:00:25.809Z,11.55
2019-04-14T01:01:30.843Z,12.68
2019-04-14T01:02:36.405Z,12.03
2019-04-14T01:03:41.589Z,11.57
2019-04-14T01:04:46.940Z,12.35
2019-04-14T01:05:52.588Z,11.65
2019-04-14T01:06:57.675Z,12.05
2019-04-14T01:08:03.125Z,12.90
2019-04-14T01:09:10.684Z,13.03
2019-04-14T01:10:15.455Z,13.43
2019-04-14T01:11:20.339Z,13.00
2019-04-14T01:12:25.737Z,13.30
2019-04-14T01:13:31.522Z,12.63
2019-04-14T01:14:36.559Z,13.75
2019-04-14T01:15:51.292Z,12.82
2019-04-14T01:16:47.635Z,13.20
2019-04-14T01:17:52.892Z,13.20
2019-04-14T01:18:58.054Z,14.13
2019-04-14T01:20:03.622Z,13.20
2019-04-14T01:21:08.930Z,13.55
2019-04-14T01:22:14.195Z,14.35
2019-04-14T01:23:19.351Z,12.78
2019-04-14T01:24:24.997Z,13.60
2019-04-14T01:25:30.312Z,14.90
2019-04-14T01:26:35.631Z,14.33
2019-04-14T01:27:40.643Z,14.68
2019-04-14T01:28:46.179Z,15.50
2019-04-14T01:29:51.617Z,14.18
2019-04-14T01:30:56.623Z,15.38
2019-04-14T01:32:02.299Z,14.90
2019-04-14T01:33:07.610Z,14.98
2019-04-14T01:34:12.963Z,14.85
2019-04-14T01:35:18.053Z,15.45
2019-04-14T01:36:23.470Z,15.00
2019-04-14T01:37:29.080Z,15.83
2019-04-14T01:38:34.371Z,15.93
2019-04-14T01:39:40.058Z,15.15
2019-04-14T01:40:44.745Z,14.93
2019-04-14T01:41:50.318Z,13.48
2019-04-14T01:42:54.949Z,14.03
2019-04-14T01:44:00.342Z,14.95
2019-04-14T01:45:07.845Z,15.98
2019-04-14T01:46:19.709Z,14.90
2019-04-14T01:47:18.864Z,14.73
2019-04-14T01:48:25.726Z,15.40
2019-04-14T01:49:31.062Z,15.38
2019-04-14T01:50:49.479Z,14.75
2019-04-14T01:52:10.900Z,13.62
2019-04-14T01:53:23.314Z,14.43
2019-04-14T01:54:53.793Z,14.40
2019-04-14T01:56:10.279Z,14.10
2019-04-14T01:57:54.388Z,14.28
2019-04-14T01:59:00.041Z,14.65
2019-04-14T02:00:29.216Z,14.33
2019-04-14T02:01:34.623Z,13.78
2019-04-14T02:02:40.014Z,14.70
2019-04-14T02:03:45.546Z,14.18
2019-04-14T02:04:50.701Z,15.00
2019-04-14T02:05:56.075Z,15.43
2019-04-14T02:07:01.886Z,15.13
2019-04-14T02:08:06.996Z,14.83
2019-04-14T02:09:12.146Z,13.80
2019-04-14T02:10:17.274Z,15.30
2019-04-14T02:11:22.594Z,13.85
2019-04-14T02:12:27.893Z,14.20
2019-04-14T02:13:33.223Z,14.23
2019-04-14T02:14:38.694Z,15.60
2019-04-14T02:15:44.253Z,15.05
2019-04-14T02:16:54.121Z,14.30
2019-04-14T02:17:56.725Z,14.53
2019-04-14T02:19:02.449Z,15.28
2019-04-14T02:20:07.788Z,15.48
2019-04-14T02:21:12.843Z,13.65
2019-04-14T02:22:18.150Z,13.70
2019-04-14T02:23:23.607Z,14.33
2019-04-14T02:24:28.874Z,14.03
2019-04-14T02:25:33.920Z,14.45
2019-04-14T02:26:39.426Z,13.80
2019-04-14T02:27:45.060Z,14.00
2019-04-14T02:28:50.425Z,13.25
2019-04-14T02:29:55.940Z,13.20
2019-04-14T02:31:13.092Z,13.20
2019-04-14T02:32:37.176Z,13.88
2019-04-14T02:33:44.651Z,14.73
2019-04-14T02:34:49.383Z,14.30
2019-04-14T02:35:55.317Z,14.55
2019-04-14T02:38:14.028Z,15.15
2019-04-14T02:39:15.583Z,13.90
2019-04-14T02:40:21.667Z,15.08
2019-04-14T02:41:29.681Z,14.50
2019-04-14T02:43:43.170Z,13.40
2019-04-14T02:45:50.546Z,14.33
2019-04-14T02:46:58.963Z,15.03
2019-04-14T02:49:03.887Z,15.30
2019-04-14T02:50:14.206Z,14.90
2019-04-14T02:51:26.767Z,15.20
2019-04-14T02:52:28.250Z,14.73
2019-04-14T02:53:44.467Z,14.85
2019-04-14T02:54:53.751Z,15.35
2019-04-14T02:55:49.485Z,15.03
2019-04-14T02:56:59.008Z,14.95
2019-04-14T02:58:03.080Z,14.65
2019-04-14T02:59:07.697Z,15.30
2019-04-14T03:00:19.710Z,14.10
2019-04-14T03:01:23.201Z,15.18
2019-04-14T03:03:35.568Z,14.78
2019-04-14T03:04:41.525Z,15.32
2019-04-14T03:05:53.141Z,16.30
2019-04-14T03:06:50.494Z,15.80
2019-04-14T03:09:15.333Z,15.43
2019-04-14T03:10:10.545Z,16.82
2019-04-14T03:11:17.190Z,21.73
2019-04-14T03:12:24.902Z,14.75
2019-04-14T03:13:28.710Z,14.43
2019-04-14T03:14:39.788Z,15.13
2019-04-14T03:15:49.328Z,14.83
2019-04-14T03:17:15.632Z,14.45
2019-04-14T03:18:35.221Z,15.50
2019-04-14T03:19:55.023Z,15.38
2019-04-14T03:21:21.302Z,14.35
2019-04-14T03:22:32.975Z,14.83
2019-04-14T03:23:46.912Z,14.45
2019-04-14T03:24:46.563Z,14.87
2019-04-14T03:26:04.998Z,13.68
2019-04-14T03:27:39.934Z,14.50
2019-04-14T03:28:51.707Z,14.40
2019-04-14T03:29:59.839Z,14.60
2019-04-14T03:32:23.122Z,14.90
2019-04-14T03:37:59.227Z,13.93
2019-04-14T03:41:12.341Z,15.08
2019-04-14T03:42:21.378Z,15.15
2019-04-14T03:43:30.603Z,14.65
2019-04-14T03:44:28.620Z,14.60
2019-04-14T03:45:42.919Z,15.93
2019-04-14T03:47:46.044Z,13.70
2019-04-14T03:50:00.696Z,14.73
2019-04-14T03:51:10.632Z,15.20
2019-04-14T03:52:13.014Z,16.73
2019-04-14T03:54:17.151Z,14.30
2019-04-14T03:55:20.292Z,15.60
2019-04-14T03:56:53.590Z,14.80
2019-04-14T03:57:58.430Z,14.95
2019-04-14T03:59:04.138Z,16.57
2019-04-14T04:00:09.618Z,14.00
2019-04-14T04:01:15.087Z,14.70
2019-04-14T04:02:20.956Z,14.90
2019-04-14T04:03:26.063Z,15.78
2019-04-14T04:04:31.595Z,15.75
2019-04-14T04:05:36.752Z,15.10
2019-04-14T04:06:42.215Z,16.48
2019-04-14T04:07:47.492Z,17.90
2019-04-14T04:08:53.080Z,16.35
2019-04-14T04:10:03.133Z,17.05
2019-04-14T04:11:10.558Z,15.50
2019-04-14T04:12:16.045Z,17.27
2019-04-14T04:13:21.534Z,15.90
2019-04-14T04:14:27.113Z,16.12
2019-04-14T04:15:32.098Z,16.97
2019-04-14T04:16:57.190Z,14.90
2019-04-14T04:18:09.108Z,15.98
2019-04-14T04:19:21.174Z,16.45
2019-04-14T04:20:45.590Z,14.90
2019-04-14T04:22:08.561Z,15.93
2019-04-14T04:23:33.435Z,17.55
2019-04-14T04:24:43.299Z,16.52
2019-04-14T04:26:19.631Z,16.67
2019-04-14T04:27:33.065Z,15.75
2019-04-14T04:28:56.654Z,17.65
2019-04-14T04:30:08.086Z,16.30
2019-04-14T04:31:20.438Z,16.15
2019-04-14T04:32:34.082Z,16.67
2019-04-14T04:33:52.277Z,16.42
2019-04-14T04:35:04.301Z,15.95
2019-04-14T04:36:23.023Z,16.85
2019-04-14T04:37:39.058Z,15.93
2019-04-14T04:38:53.152Z,14.50
2019-04-14T04:40:00.672Z,17.70
2019-04-14T04:41:05.897Z,17.98
2019-04-14T04:42:11.268Z,17.00
2019-04-14T04:43:17.109Z,16.55
2019-04-14T04:44:22.431Z,16.75
2019-04-14T04:45:27.787Z,16.75
2019-04-14T04:46:33.105Z,17.40
2019-04-14T04:47:38.776Z,17.20
2019-04-14T04:48:43.725Z,16.80
2019-04-14T04:49:49.032Z,19.10
2019-04-14T04:50:54.233Z,18.23
2019-04-14T04:51:59.654Z,17.48
2019-04-14T04:53:04.842Z,18.42
2019-04-14T04:54:10.312Z,18.32
2019-04-14T04:55:15.568Z,18.30
2019-04-14T04:56:20.809Z,18.15
2019-04-14T04:57:26.426Z,18.00
2019-04-14T04:58:31.144Z,18.25
2019-04-14T04:59:36.694Z,17.50
2019-04-14T05:00:41.709Z,17.77
2019-04-14T05:01:47.349Z,17.52
2019-04-14T05:02:52.716Z,18.12
2019-04-14T05:03:57.981Z,19.00
2019-04-14T05:05:03.503Z,18.00
2019-04-14T05:06:11.408Z,18.00
2019-04-14T05:07:16.650Z,17.42
2019-04-14T05:08:21.723Z,17.30
2019-04-14T05:09:46.918Z,17.40
2019-04-14T05:11:01.036Z,16.65
2019-04-14T05:12:17.676Z,17.30
2019-04-14T05:13:33.535Z,17.15
2019-04-14T05:14:52.405Z,17.90
2019-04-14T05:15:59.817Z,17.37
2019-04-14T05:17:05.737Z,17.65
2019-04-14T05:18:22.236Z,17.10
2019-04-14T05:19:32.643Z,16.93
2019-04-14T05:20:37.696Z,16.70
2019-04-14T05:21:43.108Z,17.85
2019-04-14T05:22:48.685Z,16.85
2019-04-14T05:23:54.405Z,17.42
2019-04-14T05:24:59.293Z,16.70
2019-04-14T05:26:04.874Z,16.30
2019-04-14T05:27:10.023Z,17.82
2019-04-14T05:28:15.632Z,16.67
2019-04-14T05:29:21.099Z,17.15
2019-04-14T05:30:26.455Z,16.40
2019-04-14T05:31:32.223Z,16.42
2019-04-14T05:32:36.980Z,16.32
2019-04-14T05:33:42.832Z,16.65
2019-04-14T05:34:47.943Z,15.80
2019-04-14T05:35:53.225Z,16.90
2019-04-14T05:36:58.483Z,16.05
2019-04-14T05:38:04.065Z,17.05
2019-04-14T05:39:11.347Z,17.30
2019-04-14T05:40:16.775Z,14.90
2019-04-14T05:41:22.284Z,15.88
2019-04-14T05:42:28.576Z,15.80
2019-04-14T05:43:41.473Z,15.48
2019-04-14T05:44:40.389Z,15.30
2019-04-14T05:45:45.787Z,14.87
2019-04-14T05:46:51.423Z,15.60
2019-04-14T05:47:56.478Z,14.68
2019-04-14T05:49:02.186Z,15.40
2019-04-14T05:50:07.539Z,15.25
2019-04-14T05:51:13.086Z,16.07
2019-04-14T05:52:18.506Z,15.20
2019-04-14T05:53:24.050Z,14.95
2019-04-14T05:54:29.786Z,13.93
2019-04-14T05:55:35.211Z,14.18
2019-04-14T05:56:40.747Z,14.40
2019-04-14T05:57:46.471Z,14.55
2019-04-14T05:58:51.523Z,14.78
2019-04-14T05:59:57.028Z,14.70
2019-04-14T06:01:02.399Z,13.88
2019-04-14T06:02:07.264Z,15.48
2019-04-14T06:03:13.017Z,12.93
2019-04-14T06:04:17.860Z,13.70
2019-04-14T06:05:23.283Z,13.60
2019-04-14T06:06:28.012Z,13.20
2019-04-14T06:07:32.744Z,12.63
2019-04-14T06:08:37.363Z,14.98
2019-04-14T06:09:41.919Z,14.30
2019-04-14T06:10:46.494Z,14.43
2019-04-14T06:11:51.204Z,13.08
2019-04-14T06:12:57.035Z,13.78
2019-04-14T06:14:01.585Z,13.08
2019-04-14T06:15:06.715Z,13.62
2019-04-14T06:16:12.250Z,12.45
2019-04-14T06:17:16.835Z,12.98
2019-04-14T06:18:21.537Z,13.38
2019-04-14T06:19:36.489Z,13.45
2019-04-14T06:20:33.743Z,13.78
2019-04-14T06:21:38.389Z,13.13
2019-04-14T06:22:43.093Z,12.95
2019-04-14T06:23:47.649Z,13.55
2019-04-14T06:24:52.253Z,13.90
2019-04-14T06:25:56.845Z,12.60
2019-04-14T06:27:01.555Z,13.08
2019-04-14T06:28:06.700Z,12.53
2019-04-14T06:29:11.350Z,12.90
2019-04-14T06:30:31.433Z,13.40
2019-04-14T06:31:55.507Z,14.87
2019-04-14T06:33:02.883Z,13.60
2019-04-14T06:34:12.158Z,14.60
2019-04-14T06:35:43.880Z,14.25
2019-04-14T06:37:03.247Z,31.00
2019-04-14T06:38:11.042Z,13.22
2019-04-14T06:39:19.193Z,14.23
2019-04-14T06:40:24.807Z,23.32
2019-04-14T06:41:29.735Z,67.50
2019-04-14T06:42:34.409Z,30.60
2019-04-14T06:43:48.313Z,12.73
2019-04-14T06:44:45.600Z,13.00
2019-04-14T06:45:50.329Z,12.10
2019-04-14T06:46:55.065Z,12.88
2019-04-14T06:47:59.734Z,12.53
2019-04-14T06:49:04.473Z,13.58
2019-04-14T06:50:10.700Z,12.23
2019-04-14T06:51:15.369Z,12.50
2019-04-14T06:52:20.119Z,12.95
2019-04-14T06:53:24.830Z,12.70
2019-04-14T06:54:29.574Z,12.50
2019-04-14T06:55:34.377Z,13.53
2019-04-14T06:56:38.959Z,13.20
2019-04-14T06:57:43.644Z,12.30
2019-04-14T06:58:50.926Z,13.10
2019-04-14T07:02:22.499Z,13.43
2019-04-14T07:03:27.264Z,13.30
2019-04-14T07:04:33.518Z,13.32
2019-04-14T07:05:38.143Z,12.45
2019-04-14T07:06:42.777Z,12.15
2019-04-14T07:07:56.525Z,12.68
2019-04-14T07:08:53.773Z,12.85
2019-04-14T07:09:58.438Z,12.28
2019-04-14T07:11:03.182Z,12.63
2019-04-14T07:12:07.930Z,14.10
2019-04-14T07:13:14.018Z,13.65
2019-04-14T07:14:18.763Z,13.43
2019-04-14T07:15:23.357Z,14.00
2019-04-14T07:16:27.983Z,14.93
2019-04-14T07:17:32.613Z,13.98
2019-04-14T07:18:37.300Z,15.30
2019-04-14T07:19:41.969Z,14.07
2019-04-14T07:20:46.759Z,15.08
2019-04-14T07:21:51.391Z,14.70
2019-04-14T07:22:56.011Z,14.60
2019-04-14T07:24:00.797Z,14.98
2019-04-14T07:25:06.731Z,15.53
2019-04-14T07:26:11.614Z,14.10
2019-04-14T07:27:16.469Z,14.63
2019-04-14T07:28:21.264Z,15.38
2019-04-14T07:29:27.639Z,14.35
2019-04-14T07:30:50.190Z,14.47
2019-04-14T07:32:16.307Z,14.15
2019-04-14T07:33:45.934Z,14.90
2019-04-14T07:34:57.924Z,14.28
2019-04-14T07:36:17.966Z,14.65
2019-04-14T07:37:37.782Z,13.90
2019-04-14T07:39:11.306Z,14.53
2019-04-14T07:40:41.292Z,14.78
2019-04-14T07:41:55.223Z,14.75
2019-04-14T07:43:09.399Z,15.05
2019-04-14T07:44:20.955Z,14.43
2019-04-14T07:45:35.056Z,14.40
2019-04-14T07:48:45.483Z,14.70
2019-04-14T07:50:16.356Z,14.98
2019-04-14T07:51:25.258Z,13.40
2019-04-14T07:52:46.854Z,15.55
2019-04-14T07:54:17.918Z,13.45
2019-04-14T07:55:51.269Z,14.40
2019-04-14T07:57:10.158Z,15.35
2019-04-14T07:58:21.900Z,14.68
2019-04-14T07:59:48.893Z,14.75
2019-04-14T08:01:00.010Z,14.73
2019-04-14T08:02:10.204Z,14.45
2019-04-14T08:03:33.952Z,14.47
2019-04-14T08:04:43.089Z,14.33
2019-04-14T08:05:47.803Z,15.80
2019-04-14T08:06:55.037Z,15.50
2019-04-14T08:07:59.771Z,14.93
2019-04-14T08:09:07.582Z,15.15
2019-04-14T08:10:15.729Z,15.38
2019-04-14T08:11:20.488Z,14.80
2019-04-14T08:12:25.170Z,15.43
2019-04-14T08:13:29.936Z,16.02
2019-04-14T08:14:34.722Z,15.50
2019-04-14T08:15:39.491Z,15.48
2019-04-14T08:16:44.138Z,14.83
2019-04-14T08:17:48.765Z,15.85
2019-04-14T08:18:53.510Z,15.65
2019-04-14T08:19:58.082Z,16.70
2019-04-14T08:21:02.828Z,16.07
2019-04-14T08:22:07.627Z,16.05
2019-04-14T08:23:12.378Z,16.73
2019-04-14T08:24:17.084Z,15.45
2019-04-14T08:25:21.806Z,15.15
2019-04-14T08:26:26.378Z,22.27
2019-04-14T08:27:31.019Z,15.75
2019-04-14T08:28:35.669Z,16.52
2019-04-14T08:29:40.295Z,15.15
2019-04-14T08:30:44.986Z,14.85
2019-04-14T08:31:49.779Z,16.25
2019-04-14T08:32:54.608Z,15.65
2019-04-14T08:33:59.232Z,15.85
2019-04-14T08:35:04.090Z,16.30
2019-04-14T08:36:08.711Z,15.23
2019-04-14T08:37:13.311Z,14.98
2019-04-14T08:38:18.922Z,16.82
2019-04-14T08:39:23.708Z,14.87
2019-04-14T08:40:28.284Z,15.90
2019-04-14T08:41:39.008Z,15.05
2019-04-14T08:43:01.611Z,15.03
2019-04-14T08:44:25.422Z,15.25
2019-04-14T08:46:07.958Z,15.48
2019-04-14T08:47:40.770Z,15.45
2019-04-14T08:48:52.573Z,15.20
2019-04-14T08:50:11.154Z,15.53
2019-04-14T08:51:26.684Z,17.15
2019-04-14T08:52:50.562Z,15.35
2019-04-14T08:54:06.391Z,15.43
2019-04-14T08:55:17.758Z,15.28
2019-04-14T08:56:37.764Z,15.53
2019-04-14T08:58:00.400Z,16.93
2019-04-14T08:59:26.355Z,15.88
2019-04-14T09:01:02.564Z,16.93
2019-04-14T09:02:35.673Z,15.95
2019-04-14T09:03:46.245Z,15.70
2019-04-14T09:05:03.103Z,16.55
2019-04-14T09:06:13.694Z,16.77
2019-04-14T09:07:37.760Z,17.23
2019-04-14T09:08:56.708Z,16.75
2019-04-14T09:10:11.266Z,15.70
2019-04-14T09:11:16.703Z,16.90
2019-04-14T09:12:26.540Z,15.90
2019-04-14T09:13:32.282Z,16.37
2019-04-14T09:14:37.119Z,16.17
2019-04-14T09:15:42.132Z,16.52
2019-04-14T09:16:46.958Z,16.97
2019-04-14T09:17:51.723Z,17.73
2019-04-14T09:19:07.674Z,17.07
2019-04-14T09:20:06.672Z,17.40
2019-04-14T09:21:11.926Z,17.07
2019-04-14T09:22:16.822Z,17.60
2019-04-14T09:23:21.668Z,16.27
2019-04-14T09:24:26.971Z,17.55
2019-04-14T09:25:31.792Z,18.02
2019-04-14T09:26:36.839Z,17.70
2019-04-14T09:27:41.812Z,16.10
2019-04-14T09:28:48.540Z,16.12
2019-04-14T09:29:54.346Z,16.00
2019-04-14T09:30:58.973Z,14.98
2019-04-14T09:32:05.436Z,15.38
2019-04-14T09:33:10.047Z,16.25
2019-04-14T09:34:14.661Z,16.77
2019-04-14T09:35:19.508Z,15.90
2019-04-14T09:36:24.164Z,16.35
2019-04-14T09:37:28.767Z,16.12
2019-04-14T09:38:33.410Z,16.23
2019-04-14T09:39:38.096Z,16.07
2019-04-14T09:40:42.974Z,16.75
2019-04-14T09:41:48.645Z,17.15
2019-04-14T09:42:53.363Z,17.82
2019-04-14T09:43:57.962Z,16.77
2019-04-14T09:45:02.563Z,16.25
2019-04-14T09:46:13.133Z,15.70
2019-04-14T09:47:17.793Z,15.72
2019-04-14T09:48:22.467Z,16.82
2019-04-14T09:49:27.172Z,17.30
2019-04-14T09:50:31.812Z,17.40
2019-04-14T09:51:36.579Z,16.73
2019-04-14T09:52:41.531Z,17.40
2019-04-14T09:53:46.267Z,16.15
2019-04-14T09:54:51.334Z,16.42
2019-04-14T09:55:56.065Z,16.85
2019-04-14T09:57:00.887Z,17.32
2019-04-14T09:58:05.587Z,14.95
2019-04-14T09:59:10.264Z,17.15
2019-04-14T10:00:15.568Z,15.95
2019-04-14T10:01:20.385Z,17.55
2019-04-14T10:02:25.789Z,16.25
2019-04-14T10:03:32.076Z,15.78
2019-04-14T10:04:36.760Z,16.75
2019-04-14T10:05:41.482Z,17.02
2019-04-14T10:06:46.192Z,17.00
2019-04-14T10:07:51.953Z,16.65
2019-04-14T10:08:57.638Z,17.25
2019-04-14T10:10:02.431Z,27.62
2019-04-14T10:11:08.821Z,16.05
2019-04-14T10:12:13.497Z,15.75
2019-04-14T10:13:18.158Z,16.37
2019-04-14T10:14:22.801Z,16.93
2019-04-14T10:15:27.458Z,15.60
2019-04-14T10:16:32.106Z,16.73
2019-04-14T10:17:36.714Z,17.67
2019-04-14T10:18:41.438Z,15.85
2019-04-14T10:19:46.146Z,17.37
2019-04-14T10:20:50.927Z,16.42
2019-04-14T10:21:55.656Z,15.95
2019-04-14T10:23:00.267Z,15.30
2019-04-14T10:24:04.873Z,15.80
2019-04-14T10:25:09.586Z,15.55
2019-04-14T10:26:14.171Z,16.37
2019-04-14T10:27:18.875Z,15.75
2019-04-14T10:28:23.529Z,16.17
2019-04-14T10:29:28.189Z,15.13
2019-04-14T10:30:32.915Z,15.60
2019-04-14T10:31:37.661Z,16.07
2019-04-14T10:32:42.394Z,17.32
2019-04-14T10:33:47.113Z,15.78
2019-04-14T10:34:51.886Z,16.17
2019-04-14T10:35:56.712Z,16.37
2019-04-14T10:37:01.321Z,15.45
2019-04-14T10:38:05.990Z,15.45
2019-04-14T10:39:10.857Z,15.13
2019-04-14T10:40:15.658Z,15.90
2019-04-14T10:41:20.480Z,16.52
2019-04-14T10:42:25.167Z,16.60
2019-04-14T10:43:29.993Z,16.30
2019-04-14T10:44:34.787Z,16.75
2019-04-14T10:45:39.519Z,17.25
2019-04-14T10:46:44.235Z,16.52
2019-04-14T10:47:49.057Z,17.17
2019-04-14T10:48:53.773Z,18.05
2019-04-14T10:49:58.488Z,16.93
2019-04-14T10:51:03.248Z,18.42
2019-04-14T10:52:08.382Z,15.98
2019-04-14T10:53:14.227Z,16.73
2019-04-14T10:54:18.982Z,17.25
2019-04-14T10:55:23.890Z,16.97
2019-04-14T10:56:28.541Z,16.73
2019-04-14T10:57:33.560Z,16.70
2019-04-14T10:58:38.277Z,16.57
2019-04-14T10:59:44.045Z,16.60
2019-04-14T11:00:49.052Z,15.80
2019-04-14T11:01:53.879Z,16.77
2019-04-14T11:02:58.729Z,17.05
2019-04-14T11:04:03.703Z,17.45
2019-04-14T11:05:08.467Z,15.70
2019-04-14T11:06:18.708Z,17.42
2019-04-14T11:07:26.806Z,15.72
2019-04-14T11:08:31.511Z,16.10
2019-04-14T11:09:36.357Z,16.82
2019-04-14T11:10:44.282Z,16.73
2019-04-14T11:11:53.465Z,15.88
2019-04-14T11:12:55.691Z,16.05
2019-04-14T11:14:00.541Z,16.85
2019-04-14T11:15:06.064Z,16.17
2019-04-14T11:16:11.762Z,15.48
2019-04-14T11:17:17.020Z,16.97
2019-04-14T11:18:21.703Z,16.30
2019-04-14T11:19:26.522Z,16.65
2019-04-14T11:20:31.338Z,16.15
2019-04-14T11:21:42.330Z,16.67
2019-04-14T11:22:44.038Z,17.15
2019-04-14T11:23:48.777Z,16.75
2019-04-14T11:24:53.460Z,16.25
2019-04-14T11:25:58.022Z,16.20
2019-04-14T11:27:02.647Z,16.97
2019-04-14T11:28:08.412Z,18.65
2019-04-14T11:29:13.400Z,16.87
2019-04-14T11:30:20.316Z,16.62
2019-04-14T11:31:46.458Z,17.52
2019-04-14T11:33:00.325Z,15.35
2019-04-14T11:34:05.004Z,16.37
2019-04-14T11:35:23.556Z,16.15
2019-04-14T11:36:56.577Z,16.07
2019-04-14T11:38:14.688Z,15.10
2019-04-14T11:39:20.195Z,15.85
2019-04-14T11:40:28.675Z,16.60
2019-04-14T11:41:33.265Z,16.02
2019-04-14T11:42:37.881Z,17.25
2019-04-14T11:43:42.562Z,17.80
2019-04-14T11:44:47.354Z,17.48
2019-04-14T11:45:52.171Z,16.48
2019-04-14T11:46:56.876Z,15.65
2019-04-14T11:48:02.552Z,17.40
2019-04-14T11:49:08.202Z,15.75
2019-04-14T11:50:13.383Z,16.30
2019-04-14T11:51:18.017Z,16.37
2019-04-14T11:52:22.642Z,17.30
2019-04-14T11:53:27.285Z,16.82
2019-04-14T11:54:31.972Z,15.50
2019-04-14T11:55:36.681Z,16.12
2019-04-14T11:56:41.422Z,16.57
2019-04-14T11:57:46.120Z,16.00
2019-04-14T11:58:50.872Z,16.85
2019-04-14T12:00:29.823Z,15.90
2019-04-14T12:01:47.421Z,14.55
2019-04-14T12:03:08.719Z,15.78
2019-04-14T12:04:25.956Z,14.00
2019-04-14T12:05:40.870Z,15.43
2019-04-14T12:06:58.564Z,14.78
2019-04-14T12:08:13.036Z,14.45
2019-04-14T12:09:23.475Z,15.25
2019-04-14T12:10:30.255Z,15.05
2019-04-14T12:11:34.943Z,14.60
2019-04-14T12:12:39.561Z,14.98
2019-04-14T12:13:44.118Z,15.72
2019-04-14T12:14:48.741Z,14.90
2019-04-14T12:15:53.363Z,14.55
2019-04-14T12:16:57.926Z,15.53
2019-04-14T12:18:02.838Z,15.10
2019-04-14T12:19:07.484Z,15.95
2019-04-14T12:20:13.214Z,16.27
2019-04-14T12:21:17.857Z,15.38
2019-04-14T12:22:22.553Z,16.07
2019-04-14T12:23:27.155Z,15.58
2019-04-14T12:24:31.778Z,16.02
2019-04-14T12:25:36.435Z,14.50
2019-04-14T12:26:41.174Z,14.80
2019-04-14T12:27:46.563Z,16.10
2019-04-14T12:28:54.472Z,15.30
2019-04-14T12:29:59.124Z,14.87
2019-04-14T12:31:06.417Z,15.93
2019-04-14T12:32:12.770Z,14.98
2019-04-14T12:33:17.505Z,14.43
2019-04-14T12:34:22.153Z,16.10
2019-04-14T12:35:26.833Z,16.23
2019-04-14T12:36:31.406Z,15.48
2019-04-14T12:37:36.068Z,15.65
2019-04-14T12:38:40.732Z,15.90
2019-04-14T12:39:45.335Z,15.23
2019-04-14T12:40:50.591Z,15.55
2019-04-14T12:42:05.423Z,14.53
2019-04-14T12:43:28.276Z,14.05
2019-04-14T12:44:46.006Z,14.23
2019-04-14T12:46:12.647Z,14.40
2019-04-14T12:47:45.429Z,14.90
2019-04-14T12:48:58.199Z,13.93
2019-04-14T12:50:03.589Z,14.40
2019-04-14T12:51:17.173Z,13.60
2019-04-14T12:52:23.821Z,14.70
2019-04-14T12:53:28.393Z,14.85
2019-04-14T12:54:33.009Z,14.28
2019-04-14T12:55:37.709Z,14.95
2019-04-14T12:56:43.563Z,14.78
2019-04-14T12:57:50.619Z,14.80
2019-04-14T12:59:14.355Z,14.38
2019-04-14T13:00:56.676Z,14.53
2019-04-14T13:02:20.595Z,12.95
2019-04-14T13:03:26.509Z,13.58
2019-04-14T13:04:31.177Z,13.28
2019-04-14T13:05:35.891Z,14.05
2019-04-14T13:06:40.547Z,13.70
2019-04-14T13:07:45.177Z,12.90
2019-04-14T13:08:49.876Z,12.33
2019-04-14T13:09:54.667Z,12.93
2019-04-14T13:10:59.599Z,12.30
2019-04-14T13:12:04.301Z,12.33
2019-04-14T13:13:08.980Z,12.95
2019-04-14T13:14:13.667Z,13.05
2019-04-14T13:15:18.221Z,11.93
2019-04-14T13:16:22.942Z,11.65
2019-04-14T13:17:27.551Z,11.90
2019-04-14T13:18:32.199Z,13.13
2019-04-14T13:19:36.992Z,12.73
2019-04-14T13:20:41.566Z,12.07
2019-04-14T13:21:46.276Z,12.30
2019-04-14T13:22:50.919Z,12.30
2019-04-14T13:23:55.550Z,12.65
2019-04-14T13:25:00.211Z,13.00
2019-04-14T13:26:05.203Z,11.63
2019-04-14T13:27:09.882Z,12.40
2019-04-14T13:28:14.496Z,11.80
2019-04-14T13:29:19.147Z,12.35
2019-04-14T13:30:35.982Z,11.55
2019-04-14T13:31:40.701Z,11.20
2019-04-14T13:32:45.350Z,11.53
2019-04-14T13:33:49.982Z,11.75
2019-04-14T13:34:54.666Z,11.63
2019-04-14T13:35:59.229Z,10.78
2019-04-14T13:37:03.836Z,12.05
2019-04-14T13:38:08.448Z,11.55
2019-04-14T13:39:13.247Z,10.90
2019-04-14T13:40:18.099Z,11.53
2019-04-14T13:41:22.696Z,11.10
2019-04-14T13:42:27.428Z,10.05
2019-04-14T13:43:32.277Z,10.75
2019-04-14T13:44:36.924Z,11.43
2019-04-14T13:45:41.657Z,10.95
2019-04-14T13:46:46.287Z,11.12
2019-04-14T13:47:50.953Z,10.08
2019-04-14T13:48:58.058Z,10.43
2019-04-14T13:50:02.652Z,10.43
2019-04-14T13:51:08.294Z,10.38
2019-04-14T13:52:12.946Z,10.88
2019-04-14T13:53:17.567Z,10.48
2019-04-14T13:54:22.173Z,10.30
2019-04-14T13:55:26.798Z,10.88
2019-04-14T13:56:31.394Z,9.65
2019-04-14T13:57:36.085Z,9.80
2019-04-14T13:58:40.973Z,10.65
2019-04-14T13:59:45.655Z,10.90
2019-04-14T14:00:50.309Z,10.13
2019-04-14T14:01:54.896Z,10.48
2019-04-14T14:02:59.574Z,10.05
2019-04-14T14:04:04.542Z,8.93
2019-04-14T14:05:09.342Z,10.23
2019-04-14T14:06:14.107Z,10.10
2019-04-14T14:07:18.781Z,10.00
2019-04-14T14:08:23.368Z,10.25
2019-04-14T14:09:28.035Z,10.48
2019-04-14T14:10:32.904Z,10.18
2019-04-14T14:11:51.481Z,10.20
2019-04-14T14:13:24.559Z,10.32
2019-04-14T14:14:50.875Z,9.70
2019-04-14T14:16:12.016Z,10.35
2019-04-14T14:17:31.765Z,10.20
2019-04-14T14:18:56.125Z,9.58
2019-04-14T14:20:25.874Z,10.82
2019-04-14T14:21:37.180Z,10.35
2019-04-14T14:22:59.380Z,10.30
2019-04-14T14:24:25.973Z,10.48
2019-04-14T14:25:35.933Z,10.20
2019-04-14T14:26:41.009Z,9.33
2019-04-14T14:27:45.672Z,10.10
2019-04-14T14:28:50.434Z,10.68
2019-04-14T14:29:54.991Z,9.95
2019-04-14T14:30:59.635Z,10.10
2019-04-14T14:32:06.063Z,10.10
2019-04-14T14:33:10.651Z,9.93
2019-04-14T14:34:16.195Z,10.10
2019-04-14T14:35:20.810Z,9.43
2019-04-14T14:36:25.497Z,10.15
2019-04-14T14:37:30.216Z,9.60
2019-04-14T14:38:34.819Z,9.73
2019-04-14T14:39:39.372Z,10.00
2019-04-14T14:40:44.044Z,10.53
2019-04-14T14:41:48.892Z,9.60
2019-04-14T14:42:53.647Z,9.88
2019-04-14T14:43:58.248Z,9.70
2019-04-14T14:45:15.011Z,9.15
2019-04-14T14:46:38.709Z,10.00
2019-04-14T14:47:49.410Z,9.80
2019-04-14T14:49:00.503Z,10.20
2019-04-14T14:50:18.342Z,9.10
2019-04-14T14:51:31.370Z,9.68
2019-04-14T14:52:37.431Z,9.80
2019-04-14T14:53:42.106Z,9.80
2019-04-14T14:54:46.851Z,10.45
2019-04-14T14:55:51.572Z,10.13
2019-04-14T14:56:56.270Z,9.88
2019-04-14T14:58:00.947Z,10.55
2019-04-14T14:59:06.211Z,10.10
2019-04-14T15:00:24.221Z,10.40
2019-04-14T15:01:28.862Z,9.85